createdAt,value
2022-12-17T00:00:29.821Z,15.80
2022-12-17T00:01:29.751Z,16.10
2022-12-17T00:02:29.895Z,15.40
2022-12-17T00:03:29.918Z,15.90
2022-12-17T00:04:29.736Z,16.40
2022-12-17T00:05:29.699Z,17.10
2022-12-17T00:06:29.712Z,17.50
2022-12-17T00:07:29.713Z,16.70
2022-12-17T00:08:29.687Z,16.60
2022-12-17T00:09:29.654Z,17.20
2022-12-17T00:10:29.657Z,17.40
2022-12-17T00:11:29.654Z,17.90
2022-12-17T00:12:29.638Z,17.00
2022-12-17T00:13:29.596Z,14.80
2022-12-17T00:14:29.619Z,14.20
2022-12-17T00:15:29.604Z,15.10
2022-12-17T00:16:29.658Z,15.20
2022-12-17T00:17:29.578Z,15.30
2022-12-17T00:18:29.551Z,16.40
2022-12-17T00:19:29.553Z,17.00
2022-12-17T00:20:29.535Z,14.70
2022-12-17T00:21:29.538Z,12.90
2022-12-17T00:22:29.500Z,13.10
2022-12-17T00:23:29.507Z,13.70
2022-12-17T00:24:29.468Z,13.40
2022-12-17T00:25:29.477Z,15.70
2022-12-17T00:26:29.499Z,14.40
2022-12-17T00:27:29.454Z,14.70
2022-12-17T00:28:29.439Z,13.50
2022-12-17T00:29:29.423Z,14.10
2022-12-17T00:30:29.406Z,13.80
2022-12-17T00:31:29.489Z,14.60
2022-12-17T00:32:29.395Z,15.40
2022-12-17T00:33:29.379Z,15.00
2022-12-17T00:34:29.350Z,14.00
2022-12-17T00:35:29.357Z,14.90
2022-12-17T00:36:29.314Z,14.50
2022-12-17T00:37:29.343Z,14.70
2022-12-17T00:38:29.306Z,15.10
2022-12-17T00:39:29.312Z,16.90
2022-12-17T00:40:29.295Z,16.20
2022-12-17T00:41:29.297Z,16.70
2022-12-17T00:42:29.251Z,17.10
2022-12-17T00:43:29.257Z,17.30
2022-12-17T00:44:29.220Z,17.90
2022-12-17T00:45:29.280Z,18.70
2022-12-17T00:46:29.251Z,18.10
2022-12-17T00:47:29.226Z,17.60
2022-12-17T00:48:29.190Z,19.00
2022-12-17T00:49:29.187Z,18.50
2022-12-17T00:50:29.144Z,18.30
2022-12-17T00:51:29.176Z,18.40
2022-12-17T00:52:29.121Z,17.10
2022-12-17T00:53:29.135Z,16.80
2022-12-17T00:54:29.104Z,17.00
2022-12-17T00:55:29.128Z,17.70
2022-12-17T00:56:29.088Z,17.90
2022-12-17T00:57:29.099Z,17.90
2022-12-17T00:58:29.076Z,16.80
2022-12-17T00:59:29.064Z,17.30
2022-12-17T01:00:29.109Z,16.60
2022-12-17T01:01:29.213Z,16.80
2022-12-17T01:02:29.118Z,16.10
2022-12-17T01:03:29.016Z,15.40
2022-12-17T01:04:28.974Z,15.10
2022-12-17T01:05:28.991Z,16.90
2022-12-17T01:06:28.957Z,16.80
2022-12-17T01:07:28.970Z,16.80
2022-12-17T01:08:28.937Z,16.80
2022-12-17T01:09:28.936Z,15.60
2022-12-17T01:10:28.891Z,15.70
2022-12-17T01:11:28.917Z,15.30
2022-12-17T01:12:28.869Z,15.60
2022-12-17T01:13:28.907Z,14.80
2022-12-17T01:14:28.842Z,16.30
2022-12-17T01:15:28.851Z,14.60
2022-12-17T01:16:28.888Z,14.00
2022-12-17T01:17:28.847Z,14.60
2022-12-17T01:18:28.821Z,14.10
2022-12-17T01:19:28.816Z,14.00
2022-12-17T01:20:28.788Z,13.60
2022-12-17T01:21:28.793Z,14.30
2022-12-17T01:22:28.743Z,14.40
2022-12-17T01:23:28.783Z,14.80
2022-12-17T01:24:28.719Z,14.10
2022-12-17T01:25:28.730Z,15.20
2022-12-17T01:26:28.698Z,14.90
2022-12-17T01:27:28.738Z,15.70
2022-12-17T01:28:28.686Z,17.40
2022-12-17T01:29:28.684Z,16.80
2022-12-17T01:30:28.664Z,15.50
2022-12-17T01:31:34.345Z,19.20
2022-12-17T01:32:28.632Z,20.90
2022-12-17T01:33:28.650Z,23.40
2022-12-17T01:34:28.616Z,27.40
2022-12-17T01:35:28.627Z,27.30
2022-12-17T01:36:28.578Z,26.30
2022-12-17T01:37:28.577Z,27.20
2022-12-17T01:38:28.565Z,28.00
2022-12-17T01:39:28.554Z,29.90
2022-12-17T01:40:28.525Z,30.50
2022-12-17T01:41:28.546Z,31.30
2022-12-17T01:42:28.526Z,27.60
2022-12-17T01:43:28.531Z,23.80
2022-12-17T01:44:28.475Z,23.50
2022-12-17T01:45:28.533Z,25.30
2022-12-17T01:46:28.436Z,21.80
2022-12-17T01:47:28.462Z,22.90
2022-12-17T01:48:28.426Z,24.00
2022-12-17T01:49:28.448Z,23.40
2022-12-17T01:50:28.415Z,22.60
2022-12-17T01:51:28.411Z,19.70
2022-12-17T01:52:28.369Z,21.50
2022-12-17T01:53:28.383Z,22.10
2022-12-17T01:54:28.346Z,23.00
2022-12-17T01:55:28.383Z,22.50
2022-12-17T01:56:28.345Z,21.50
2022-12-17T01:57:28.338Z,22.20
2022-12-17T01:58:28.316Z,22.10
2022-12-17T01:59:28.313Z,22.80
2022-12-17T02:00:28.294Z,22.30
2022-12-17T02:01:28.464Z,22.00
2022-12-17T02:02:28.324Z,21.80
2022-12-17T02:03:28.320Z,24.00
2022-12-17T02:04:28.239Z,24.80
2022-12-17T02:05:28.259Z,24.40
2022-12-17T02:06:28.204Z,24.80
2022-12-17T02:07:28.248Z,25.00
2022-12-17T02:08:28.206Z,24.30
2022-12-17T02:09:28.189Z,24.30
2022-12-17T02:10:28.156Z,23.60
2022-12-17T02:11:28.178Z,23.20
2022-12-17T02:12:28.133Z,22.70
2022-12-17T02:13:28.163Z,22.10
2022-12-17T02:14:28.112Z,23.10
2022-12-17T02:15:28.126Z,23.70
2022-12-17T02:16:28.161Z,22.30
2022-12-17T02:17:28.103Z,23.20
2022-12-17T02:18:28.069Z,22.60
2022-12-17T02:19:28.074Z,21.90
2022-12-17T02:20:28.033Z,22.20
2022-12-17T02:21:28.052Z,23.90
2022-12-17T02:22:28.016Z,23.40
2022-12-17T02:23:28.027Z,24.00
2022-12-17T02:24:28.002Z,27.40
2022-12-17T02:25:27.992Z,28.30
2022-12-17T02:26:27.983Z,27.50
2022-12-17T02:27:27.976Z,27.40
2022-12-17T02:28:27.939Z,28.20
2022-12-17T02:29:27.952Z,27.50
2022-12-17T02:30:27.918Z,26.60
2022-12-17T02:31:27.976Z,26.00
2022-12-17T02:32:27.885Z,25.50
2022-12-17T02:33:27.889Z,25.60
2022-12-17T02:34:27.869Z,26.50
2022-12-17T02:35:27.862Z,26.50
2022-12-17T02:36:27.835Z,25.60
2022-12-17T02:37:27.843Z,24.20
2022-12-17T02:38:27.806Z,25.20
2022-12-17T02:39:27.847Z,25.90
2022-12-17T02:40:27.786Z,27.70
2022-12-17T02:41:27.787Z,28.10
2022-12-17T02:42:27.760Z,26.70
2022-12-17T02:43:27.765Z,27.20
2022-12-17T02:44:27.753Z,26.20
2022-12-17T02:45:27.736Z,25.00
2022-12-17T02:46:27.825Z,24.80
2022-12-17T02:47:27.739Z,25.00
2022-12-17T02:48:27.681Z,24.60
2022-12-17T02:49:27.700Z,25.60
2022-12-17T02:50:27.660Z,23.50
2022-12-17T02:51:27.711Z,24.50
2022-12-17T02:52:30.678Z,23.40
2022-12-17T02:53:27.643Z,23.90
2022-12-17T02:54:27.606Z,23.30
2022-12-17T02:55:27.613Z,22.80
2022-12-17T02:56:27.608Z,22.20
2022-12-17T02:57:27.587Z,23.80
2022-12-17T02:58:27.571Z,23.20
2022-12-17T02:59:27.568Z,21.20
2022-12-17T03:00:27.543Z,21.20
2022-12-17T03:01:27.642Z,23.00
2022-12-17T03:02:27.679Z,21.80
2022-12-17T03:03:27.675Z,21.90
2022-12-17T03:04:27.482Z,20.30
2022-12-17T03:05:44.447Z,20.20
2022-12-17T03:06:27.478Z,19.90
2022-12-17T03:07:27.469Z,19.60
2022-12-17T03:08:27.453Z,19.50
2022-12-17T03:09:27.441Z,20.60
2022-12-17T03:10:27.418Z,20.10
2022-12-17T03:11:27.434Z,20.90
2022-12-17T03:12:27.380Z,21.50
2022-12-17T03:13:27.414Z,21.00
2022-12-17T03:14:27.361Z,21.20
2022-12-17T03:15:27.373Z,21.20
2022-12-17T03:16:30.280Z,20.50
2022-12-17T03:17:27.366Z,21.20
2022-12-17T03:18:27.312Z,22.30
2022-12-17T03:19:27.363Z,20.80
2022-12-17T03:20:27.296Z,22.70
2022-12-17T03:21:27.296Z,21.50
2022-12-17T03:22:27.261Z,22.00
2022-12-17T03:23:27.287Z,23.70
2022-12-17T03:24:27.229Z,21.80
2022-12-17T03:25:27.240Z,21.60
2022-12-17T03:26:27.211Z,22.80
2022-12-17T03:27:27.238Z,22.50
2022-12-17T03:28:27.187Z,22.60
2022-12-17T03:29:27.223Z,21.70
2022-12-17T03:30:27.202Z,21.30
2022-12-17T03:31:27.243Z,21.50
2022-12-17T03:32:27.146Z,19.60
2022-12-17T03:33:27.146Z,20.70
2022-12-17T03:34:27.175Z,19.20
2022-12-17T03:35:27.131Z,21.60
2022-12-17T03:36:27.087Z,21.70
2022-12-17T03:37:27.138Z,21.60
2022-12-17T03:38:27.057Z,21.50
2022-12-17T03:39:27.070Z,21.70
2022-12-17T03:40:27.030Z,21.30
2022-12-17T03:41:27.072Z,21.60
2022-12-17T03:42:27.024Z,22.20
2022-12-17T03:43:27.030Z,23.10
2022-12-17T03:44:27.006Z,22.60
2022-12-17T03:45:27.016Z,22.10
2022-12-17T03:46:27.039Z,22.10
2022-12-17T03:47:27.010Z,24.30
2022-12-17T03:48:26.944Z,23.50
2022-12-17T03:49:26.963Z,24.20
2022-12-17T03:50:26.908Z,24.40
2022-12-17T03:51:26.927Z,24.00
2022-12-17T03:52:26.959Z,24.60
2022-12-17T03:53:26.905Z,23.90
2022-12-17T03:54:26.885Z,24.20
2022-12-17T03:55:26.868Z,23.50
2022-12-17T03:56:26.835Z,23.30
2022-12-17T03:57:26.848Z,25.50
2022-12-17T03:58:26.840Z,23.60
2022-12-17T03:59:26.831Z,25.10
2022-12-17T04:00:26.809Z,24.10
2022-12-17T04:01:26.886Z,23.90
2022-12-17T04:02:26.956Z,22.40
2022-12-17T04:03:26.852Z,24.40
2022-12-17T04:04:26.799Z,24.10
2022-12-17T04:05:26.748Z,23.70
2022-12-17T04:06:26.713Z,25.30
2022-12-17T04:07:26.762Z,24.30
2022-12-17T04:08:26.691Z,24.50
2022-12-17T04:09:26.698Z,24.20
2022-12-17T04:10:26.701Z,25.70
2022-12-17T04:11:26.684Z,25.80
2022-12-17T04:12:26.660Z,25.00
2022-12-17T04:13:26.674Z,25.00
2022-12-17T04:14:26.628Z,24.10
2022-12-17T04:15:26.683Z,24.00
2022-12-17T04:16:26.617Z,23.90
2022-12-17T04:17:26.609Z,23.60
2022-12-17T04:18:26.574Z,23.40
2022-12-17T04:19:26.605Z,23.60
2022-12-17T04:20:26.546Z,24.30
2022-12-17T04:21:26.550Z,26.70
2022-12-17T04:22:26.538Z,27.70
2022-12-17T04:23:26.532Z,27.50
2022-12-17T04:24:26.498Z,26.40
2022-12-17T04:25:26.507Z,26.80
2022-12-17T04:26:26.497Z,25.80
2022-12-17T04:27:26.475Z,24.40
2022-12-17T04:28:26.439Z,24.60
2022-12-17T04:29:26.455Z,25.00
2022-12-17T04:30:26.451Z,24.70
2022-12-17T04:31:26.481Z,25.80
2022-12-17T04:32:29.071Z,25.90
2022-12-17T04:33:26.410Z,25.70
2022-12-17T04:34:26.403Z,25.40
2022-12-17T04:35:26.364Z,26.20
2022-12-17T04:36:26.391Z,24.80
2022-12-17T04:37:26.338Z,24.00
2022-12-17T04:38:26.368Z,24.80
2022-12-17T04:39:26.309Z,25.90
2022-12-17T04:40:26.336Z,26.30
2022-12-17T04:41:26.313Z,24.90
2022-12-17T04:42:26.330Z,24.60
2022-12-17T04:43:26.270Z,25.70
2022-12-17T04:44:26.276Z,26.00
2022-12-17T04:45:26.236Z,25.10
2022-12-17T04:46:26.365Z,25.00
2022-12-17T04:47:26.227Z,24.70
2022-12-17T04:48:26.264Z,26.00
2022-12-17T04:49:26.190Z,24.70
2022-12-17T04:50:26.195Z,25.50
2022-12-17T04:51:26.188Z,25.40
2022-12-17T04:52:26.181Z,24.60
2022-12-17T04:53:26.135Z,24.40
2022-12-17T04:54:26.153Z,23.60
2022-12-17T04:55:26.135Z,23.20
2022-12-17T04:56:26.124Z,22.50
2022-12-17T04:57:26.092Z,22.50
2022-12-17T04:58:26.123Z,22.30
2022-12-17T04:59:26.074Z,22.50
2022-12-17T05:00:26.086Z,22.90
2022-12-17T05:01:26.160Z,24.10
2022-12-17T05:02:26.218Z,23.90
2022-12-17T05:03:26.126Z,23.30
2022-12-17T05:04:26.017Z,24.00
2022-12-17T05:05:26.025Z,26.90
2022-12-17T05:06:26.013Z,26.90
2022-12-17T05:07:25.969Z,28.40
2022-12-17T05:08:25.980Z,25.00
2022-12-17T05:09:25.936Z,23.50
2022-12-17T05:10:25.954Z,25.90
2022-12-17T05:11:25.953Z,25.00
2022-12-17T05:12:25.925Z,25.40
2022-12-17T05:13:25.886Z,26.20
2022-12-17T05:14:25.899Z,25.10
2022-12-17T05:15:25.895Z,26.00
2022-12-17T05:16:25.927Z,26.90
2022-12-17T05:17:25.861Z,26.70
2022-12-17T05:18:25.864Z,26.40
2022-12-17T05:19:25.821Z,29.00
2022-12-17T05:20:25.865Z,27.10
2022-12-17T05:21:30.476Z,25.90
2022-12-17T05:22:25.819Z,24.50
2022-12-17T05:23:25.761Z,26.20
2022-12-17T05:24:25.778Z,26.50
2022-12-17T05:25:25.757Z,27.40
2022-12-17T05:26:25.758Z,26.00
2022-12-17T05:27:25.726Z,26.60
2022-12-17T05:28:25.758Z,27.90
2022-12-17T05:29:25.699Z,26.80
2022-12-17T05:30:25.715Z,25.40
2022-12-17T05:31:25.751Z,26.70
2022-12-17T05:32:25.681Z,25.30
2022-12-17T05:33:25.707Z,24.80
2022-12-17T05:34:25.665Z,24.20
2022-12-17T05:35:25.625Z,24.50
2022-12-17T05:36:25.637Z,22.40
2022-12-17T05:37:25.599Z,23.50
2022-12-17T05:38:25.653Z,23.20
2022-12-17T05:39:25.593Z,24.40
2022-12-17T05:40:25.589Z,24.00
2022-12-17T05:41:25.563Z,24.90
2022-12-17T05:42:25.556Z,25.10
2022-12-17T05:43:25.552Z,24.70
2022-12-17T05:44:25.562Z,25.70
2022-12-17T05:45:25.495Z,25.60
2022-12-17T05:46:25.605Z,26.30
2022-12-17T05:47:25.479Z,24.40
2022-12-17T05:48:25.485Z,23.20
2022-12-17T05:49:25.481Z,23.00
2022-12-17T05:50:25.463Z,21.90
2022-12-17T05:51:25.425Z,22.60
2022-12-17T05:52:25.440Z,20.50
2022-12-17T05:53:25.389Z,21.90
2022-12-17T05:54:25.433Z,21.60
2022-12-17T05:55:25.368Z,21.00
2022-12-17T05:56:25.384Z,20.80
2022-12-17T05:57:25.365Z,20.60
2022-12-17T05:58:25.350Z,21.20
2022-12-17T05:59:25.316Z,20.50
2022-12-17T06:00:25.355Z,21.70
2022-12-17T06:01:25.353Z,21.10
2022-12-17T06:02:25.337Z,20.00
2022-12-17T06:03:25.396Z,20.60
2022-12-17T06:04:25.299Z,20.40
2022-12-17T06:05:25.273Z,21.00
2022-12-17T06:06:25.262Z,19.90
2022-12-17T06:07:25.216Z,20.50
2022-12-17T06:08:25.250Z,19.70
2022-12-17T06:09:25.228Z,20.40
2022-12-17T06:10:25.208Z,22.90
2022-12-17T06:11:25.170Z,20.80
2022-12-17T06:12:25.215Z,20.90
2022-12-17T06:13:25.142Z,22.40
2022-12-17T06:14:25.168Z,22.10
2022-12-17T06:15:25.139Z,21.60
2022-12-17T06:16:25.210Z,21.80
2022-12-17T06:17:25.127Z,22.90
2022-12-17T06:18:25.104Z,21.40
2022-12-17T06:19:25.068Z,21.40
2022-12-17T06:20:25.088Z,23.40
2022-12-17T06:21:25.056Z,22.40
2022-12-17T06:22:25.089Z,20.90
2022-12-17T06:23:25.028Z,22.30
2022-12-17T06:24:25.040Z,22.10
2022-12-17T06:25:25.009Z,21.90
2022-12-17T06:26:25.032Z,20.40
2022-12-17T06:27:24.994Z,23.60
2022-12-17T06:28:24.993Z,21.80
2022-12-17T06:29:24.961Z,21.20
2022-12-17T06:30:24.971Z,21.70
2022-12-17T06:31:25.015Z,22.00
2022-12-17T06:32:24.939Z,22.10
2022-12-17T06:33:24.907Z,22.40
2022-12-17T06:34:24.921Z,21.60
2022-12-17T06:35:24.872Z,22.70
2022-12-17T06:36:24.914Z,22.80
2022-12-17T06:37:24.883Z,21.30
2022-12-17T06:38:24.866Z,22.80
2022-12-17T06:39:24.838Z,22.60
2022-12-17T06:40:24.831Z,22.90
2022-12-17T06:41:24.832Z,22.50
2022-12-17T06:42:24.820Z,23.50
2022-12-17T06:43:24.792Z,25.20
2022-12-17T06:44:24.808Z,24.10
2022-12-17T06:45:24.760Z,22.20
2022-12-17T06:46:24.821Z,23.90
2022-12-17T06:47:24.730Z,24.30
2022-12-17T06:48:24.743Z,25.90
2022-12-17T06:49:24.701Z,23.30
2022-12-17T06:50:24.753Z,25.30
2022-12-17T06:51:24.683Z,25.60
2022-12-17T06:52:24.716Z,25.50
2022-12-17T06:53:24.682Z,25.70
2022-12-17T06:54:24.674Z,25.60
2022-12-17T06:55:24.643Z,26.10
2022-12-17T06:56:24.669Z,25.90
2022-12-17T06:57:24.632Z,25.90
2022-12-17T06:58:24.642Z,25.30
2022-12-17T06:59:24.584Z,26.20
2022-12-17T07:00:24.613Z,26.00
2022-12-17T07:01:24.668Z,26.00
2022-12-17T07:02:24.699Z,25.50
2022-12-17T07:03:24.567Z,25.70
2022-12-17T07:04:24.562Z,26.30
2022-12-17T07:05:24.540Z,26.00
2022-12-17T07:06:24.523Z,28.90
2022-12-17T07:07:24.489Z,28.60
2022-12-17T07:08:24.487Z,27.70
2022-12-17T07:09:24.451Z,26.80
2022-12-17T07:10:24.505Z,27.20
2022-12-17T07:11:24.475Z,28.00
2022-12-17T07:12:24.453Z,28.60
2022-12-17T07:13:24.410Z,27.50
2022-12-17T07:14:24.422Z,26.90
2022-12-17T07:15:24.386Z,26.60
2022-12-17T07:16:24.447Z,26.90
2022-12-17T07:17:24.364Z,26.90
2022-12-17T07:18:24.366Z,26.40
2022-12-17T07:19:27.512Z,28.60
2022-12-17T07:20:24.355Z,26.70
2022-12-17T07:21:24.336Z,27.70
2022-12-17T07:22:24.340Z,28.10
2022-12-17T07:23:24.291Z,31.00
2022-12-17T07:24:24.301Z,32.20
2022-12-17T07:25:24.262Z,32.30
2022-12-17T07:26:24.319Z,31.60
2022-12-17T07:27:24.243Z,31.20
2022-12-17T07:28:24.272Z,31.20
2022-12-17T07:29:24.215Z,32.10
2022-12-17T07:30:24.227Z,32.20
2022-12-17T07:31:24.273Z,32.40
2022-12-17T07:32:24.211Z,32.70
2022-12-17T07:33:24.161Z,32.50
2022-12-17T07:34:24.185Z,31.80
2022-12-17T07:35:24.141Z,33.00
2022-12-17T07:36:24.210Z,32.10
2022-12-17T07:37:24.128Z,33.00
2022-12-17T07:38:24.128Z,34.50
2022-12-17T07:39:24.085Z,34.70
2022-12-17T07:40:24.116Z,35.20
2022-12-17T07:41:24.106Z,34.60
2022-12-17T07:42:24.079Z,32.70
2022-12-17T07:43:24.048Z,33.20
2022-12-17T07:44:24.060Z,37.60
2022-12-17T07:45:24.037Z,35.80
2022-12-17T07:46:24.113Z,33.60
2022-12-17T07:47:23.991Z,34.90
2022-12-17T07:48:24.010Z,35.10
2022-12-17T07:49:25.993Z,34.30
2022-12-17T07:50:23.969Z,34.00
2022-12-17T07:51:23.960Z,35.00
2022-12-17T07:52:23.948Z,36.70
2022-12-17T07:53:23.927Z,35.30
2022-12-17T07:54:23.959Z,35.60
2022-12-17T07:55:23.897Z,34.90
2022-12-17T07:56:23.897Z,34.70
2022-12-17T07:57:23.871Z,35.70
2022-12-17T07:58:23.889Z,36.00
2022-12-17T07:59:23.838Z,35.10
2022-12-17T08:00:23.881Z,35.80
2022-12-17T08:01:23.935Z,34.00
2022-12-17T08:02:23.940Z,35.20
2022-12-17T08:03:23.873Z,35.10
2022-12-17T08:04:23.804Z,35.40
2022-12-17T08:05:23.766Z,36.10
2022-12-17T08:06:23.819Z,35.50
2022-12-17T08:07:23.736Z,35.70
2022-12-17T08:08:23.766Z,36.90
2022-12-17T08:09:23.732Z,36.50
2022-12-17T08:10:23.775Z,35.50
2022-12-17T08:11:23.733Z,36.30
2022-12-17T08:12:23.742Z,35.90
2022-12-17T08:13:23.675Z,37.20
2022-12-17T08:14:23.685Z,36.70
2022-12-17T08:15:23.659Z,37.10
2022-12-17T08:16:23.735Z,37.70
2022-12-17T08:17:23.620Z,38.10
2022-12-17T08:18:26.683Z,37.50
2022-12-17T08:19:23.591Z,38.30
2022-12-17T08:20:23.670Z,36.40
2022-12-17T08:21:23.579Z,36.40
2022-12-17T08:22:23.613Z,38.20
2022-12-17T08:23:23.560Z,38.70
2022-12-17T08:24:23.566Z,38.50
2022-12-17T08:25:23.536Z,36.10
2022-12-17T08:26:23.542Z,38.10
2022-12-17T08:27:23.519Z,38.50
2022-12-17T08:29:23.497Z,37.70
2022-12-17T08:30:23.610Z,36.40
2022-12-17T08:31:23.513Z,38.00
2022-12-17T08:32:23.490Z,36.90
2022-12-17T08:33:23.424Z,37.80
2022-12-17T08:34:23.448Z,38.70
2022-12-17T08:35:23.394Z,36.80
2022-12-17T08:36:23.422Z,39.90
2022-12-17T08:37:23.398Z,38.70
2022-12-17T08:38:23.427Z,37.80
2022-12-17T08:39:23.341Z,38.20
2022-12-17T08:40:23.388Z,36.20
2022-12-17T08:41:23.345Z,35.10
2022-12-17T08:42:23.378Z,37.40
2022-12-17T08:43:23.296Z,35.10
2022-12-17T08:44:23.321Z,35.80
2022-12-17T08:45:23.282Z,37.60
2022-12-17T08:46:23.343Z,36.70
2022-12-17T08:47:23.264Z,36.70
2022-12-17T08:48:23.266Z,33.60
2022-12-17T08:49:23.255Z,36.20
2022-12-17T08:50:23.216Z,36.60
2022-12-17T08:51:23.236Z,36.00
2022-12-17T08:52:23.190Z,33.90
2022-12-17T08:53:23.222Z,35.30
2022-12-17T08:54:23.151Z,35.30
2022-12-17T08:55:23.174Z,33.50
2022-12-17T08:56:23.137Z,33.70
2022-12-17T08:57:31.398Z,34.60
2022-12-17T08:58:23.147Z,32.50
2022-12-17T08:59:23.132Z,33.40
2022-12-17T09:00:23.117Z,32.10
2022-12-17T09:01:23.258Z,33.50
2022-12-17T09:02:23.208Z,32.20
2022-12-17T09:03:23.152Z,32.90
2022-12-17T09:04:23.033Z,31.50
2022-12-17T09:05:23.046Z,32.30
2022-12-17T09:06:23.019Z,32.90
2022-12-17T09:07:23.037Z,32.40
2022-12-17T09:08:22.993Z,32.70
2022-12-17T09:09:23.028Z,32.50
2022-12-17T09:10:23.010Z,31.80
2022-12-17T09:11:22.971Z,31.80
2022-12-17T09:12:22.945Z,31.40
2022-12-17T09:13:22.951Z,31.00
2022-12-17T09:14:22.924Z,30.70
2022-12-17T09:15:22.960Z,30.60
2022-12-17T09:16:22.912Z,32.70
2022-12-17T09:17:22.895Z,31.50
2022-12-17T09:18:22.869Z,30.00
2022-12-17T09:19:22.874Z,31.50
2022-12-17T09:20:28.973Z,30.70
2022-12-17T09:21:22.870Z,30.60
2022-12-17T09:22:22.844Z,33.40
2022-12-17T09:23:22.831Z,33.60
2022-12-17T09:24:22.801Z,32.20
2022-12-17T09:25:22.801Z,34.40
2022-12-17T09:26:22.802Z,32.90
2022-12-17T09:27:22.796Z,36.40
2022-12-17T09:28:22.768Z,35.30
2022-12-17T09:29:22.776Z,35.90
2022-12-17T09:30:22.723Z,36.20
2022-12-17T09:31:22.762Z,37.30
2022-12-17T09:32:22.725Z,37.20
2022-12-17T09:33:22.738Z,35.50
2022-12-17T09:34:22.677Z,35.20
2022-12-17T09:35:22.690Z,34.90
2022-12-17T09:36:22.670Z,33.90
2022-12-17T09:37:22.681Z,36.10
2022-12-17T09:38:22.624Z,37.60
2022-12-17T09:39:22.657Z,37.10
2022-12-17T09:40:22.600Z,38.10
2022-12-17T09:41:22.630Z,35.60
2022-12-17T09:42:22.583Z,37.90
2022-12-17T09:43:22.586Z,37.90
2022-12-17T09:44:22.581Z,37.80
2022-12-17T09:45:22.563Z,37.70
2022-12-17T09:46:22.614Z,37.50
2022-12-17T09:47:22.535Z,38.70
2022-12-17T09:48:22.489Z,36.70
2022-12-17T09:49:22.517Z,34.90
2022-12-17T09:50:22.491Z,35.90
2022-12-17T09:51:22.500Z,37.80
2022-12-17T09:52:22.489Z,38.10
2022-12-17T09:53:22.465Z,37.80
2022-12-17T09:54:22.424Z,36.50
2022-12-17T09:55:22.473Z,40.40
2022-12-17T09:56:22.401Z,35.30
2022-12-17T09:57:22.413Z,36.10
2022-12-17T09:58:22.367Z,37.70
2022-12-17T09:59:22.422Z,36.40
2022-12-17T10:00:22.353Z,36.70
2022-12-17T10:01:22.511Z,35.20
2022-12-17T10:02:22.517Z,33.90
2022-12-17T10:03:22.391Z,33.20
2022-12-17T10:04:22.308Z,33.90
2022-12-17T10:05:22.337Z,36.10
2022-12-17T10:06:22.826Z,35.00
2022-12-17T10:07:22.278Z,35.90
2022-12-17T10:08:22.264Z,37.30
2022-12-17T10:09:22.282Z,41.10
2022-12-17T10:10:22.259Z,36.60
2022-12-17T10:11:22.238Z,37.00
2022-12-17T10:12:22.209Z,34.40
2022-12-17T10:13:22.220Z,37.20
2022-12-17T10:14:22.180Z,38.00
2022-12-17T10:15:22.210Z,38.50
2022-12-17T10:16:22.227Z,38.90
2022-12-17T10:17:22.177Z,37.80
2022-12-17T10:18:22.127Z,38.90
2022-12-17T10:19:22.138Z,37.50
2022-12-17T10:20:22.131Z,36.50
2022-12-17T10:21:22.144Z,39.20
2022-12-17T10:22:22.075Z,38.10
2022-12-17T10:23:22.115Z,41.20
2022-12-17T10:24:22.075Z,38.90
2022-12-17T10:25:22.129Z,39.40
2022-12-17T10:26:22.042Z,41.10
2022-12-17T10:27:22.036Z,38.60
2022-12-17T10:28:22.021Z,37.10
2022-12-17T10:29:22.031Z,39.00
2022-12-17T10:30:21.970Z,38.30
2022-12-17T10:31:22.126Z,37.30
2022-12-17T10:32:21.952Z,36.90
2022-12-17T10:33:21.970Z,36.80
2022-12-17T10:34:21.958Z,35.60
2022-12-17T10:35:21.935Z,37.20
2022-12-17T10:36:21.938Z,36.70
2022-12-17T10:37:21.989Z,35.00
2022-12-17T10:38:21.874Z,34.60
2022-12-17T10:39:21.922Z,34.20
2022-12-17T10:40:21.867Z,36.50
2022-12-17T10:41:21.924Z,35.50
2022-12-17T10:42:21.834Z,38.00
2022-12-17T10:43:21.840Z,39.40
2022-12-17T10:44:21.805Z,35.20
2022-12-17T10:45:21.809Z,36.40
2022-12-17T10:46:21.867Z,35.60
2022-12-17T10:47:21.799Z,36.70
2022-12-17T10:48:21.752Z,34.20
2022-12-17T10:49:21.811Z,36.10
2022-12-17T10:50:21.772Z,35.10
2022-12-17T10:51:21.795Z,34.30
2022-12-17T10:52:21.718Z,36.10
2022-12-17T10:53:21.716Z,36.20
2022-12-17T10:54:21.694Z,35.00
2022-12-17T10:55:21.706Z,35.50
2022-12-17T10:56:21.664Z,36.40
2022-12-17T10:57:21.692Z,37.90
2022-12-17T10:58:21.659Z,35.90
2022-12-17T10:59:21.816Z,33.90
2022-12-17T11:00:21.618Z,36.20
2022-12-17T11:01:21.739Z,35.90
2022-12-17T11:02:21.904Z,35.80
2022-12-17T11:03:21.709Z,35.50
2022-12-17T11:04:21.619Z,34.70
2022-12-17T11:05:21.578Z,35.50
2022-12-17T11:06:21.555Z,31.70
2022-12-17T11:07:21.547Z,33.30
2022-12-17T11:08:21.555Z,33.70
2022-12-17T11:09:21.575Z,35.20
2022-12-17T11:10:21.485Z,34.60
2022-12-17T11:11:21.534Z,33.90
2022-12-17T11:12:25.777Z,35.40
2022-12-17T11:13:21.479Z,34.00
2022-12-17T11:14:21.461Z,34.20
2022-12-17T11:15:21.476Z,34.80
2022-12-17T11:16:21.523Z,33.70
2022-12-17T11:17:21.434Z,35.40
2022-12-17T11:18:21.380Z,35.40
2022-12-17T11:19:21.394Z,34.00
2022-12-17T11:20:21.356Z,33.40
2022-12-17T11:21:21.394Z,34.00
2022-12-17T11:22:21.332Z,34.60
2022-12-17T11:23:21.368Z,35.10
2022-12-17T11:24:22.910Z,35.90
2022-12-17T11:25:21.336Z,34.90
2022-12-17T11:26:21.288Z,36.90
2022-12-17T11:27:21.301Z,35.30
2022-12-17T11:28:21.282Z,37.30
2022-12-17T11:29:21.271Z,35.90
2022-12-17T11:30:24.035Z,35.10
2022-12-17T11:31:21.291Z,35.90
2022-12-17T11:32:21.240Z,32.80
2022-12-17T11:33:21.234Z,35.80
2022-12-17T11:34:21.227Z,35.80
2022-12-17T11:35:21.167Z,36.50
2022-12-17T11:36:27.605Z,34.70
2022-12-17T11:37:21.152Z,36.10
2022-12-17T11:38:21.187Z,34.40
2022-12-17T11:39:21.143Z,35.80
2022-12-17T11:40:21.144Z,33.10
2022-12-17T11:41:21.104Z,33.20
2022-12-17T11:42:21.120Z,32.80
2022-12-17T11:43:21.076Z,33.50
2022-12-17T11:44:21.122Z,33.20
2022-12-17T11:45:21.059Z,33.40
2022-12-17T11:46:21.160Z,35.20
2022-12-17T11:47:21.017Z,34.40
2022-12-17T11:48:21.053Z,33.20
2022-12-17T11:49:21.031Z,35.40
2022-12-17T11:50:21.013Z,34.70
2022-12-17T11:51:20.978Z,34.40
2022-12-17T11:52:20.985Z,34.00
2022-12-17T11:53:27.540Z,34.10
2022-12-17T11:54:21.021Z,34.20
2022-12-17T11:55:20.976Z,36.60
2022-12-17T11:56:20.941Z,35.10
2022-12-17T11:57:20.897Z,34.50
2022-12-17T11:58:20.942Z,34.80
2022-12-17T11:59:20.920Z,33.20
2022-12-17T12:00:20.890Z,34.50
2022-12-17T12:01:20.916Z,37.00
2022-12-17T12:02:20.962Z,39.10
2022-12-17T12:03:21.067Z,40.60
2022-12-17T12:04:20.903Z,39.20
2022-12-17T12:05:20.846Z,41.90
2022-12-17T12:06:20.825Z,41.60
2022-12-17T12:07:20.782Z,41.20
2022-12-17T12:08:20.808Z,40.20
2022-12-17T12:09:20.764Z,42.00
2022-12-17T12:10:20.768Z,41.00
2022-12-17T12:11:20.752Z,39.70
2022-12-17T12:12:20.758Z,40.00
2022-12-17T12:13:20.764Z,43.00
2022-12-17T12:14:20.732Z,42.30
2022-12-17T12:15:20.709Z,43.50
2022-12-17T12:16:20.729Z,43.90
2022-12-17T12:17:20.687Z,44.20
2022-12-17T12:18:20.673Z,42.80
2022-12-17T12:19:20.671Z,43.80
2022-12-17T12:20:20.954Z,42.70
2022-12-17T12:21:20.642Z,42.90
2022-12-17T12:22:23.633Z,42.90
2022-12-17T12:23:20.616Z,43.90
2022-12-17T12:24:20.606Z,42.50
2022-12-17T12:25:20.602Z,46.50
2022-12-17T12:26:20.575Z,42.50
2022-12-17T12:27:20.556Z,41.40
2022-12-17T12:28:20.551Z,41.40
2022-12-17T12:29:20.544Z,43.90
2022-12-17T12:30:20.537Z,42.00
2022-12-17T12:31:20.545Z,41.90
2022-12-17T12:32:20.500Z,40.50
2022-12-17T12:33:20.495Z,41.20
2022-12-17T12:34:20.527Z,41.50
2022-12-17T12:35:20.451Z,44.40
2022-12-17T12:36:20.477Z,42.10
2022-12-17T12:37:20.468Z,42.00
2022-12-17T12:38:20.436Z,42.30
2022-12-17T12:39:20.420Z,44.80
2022-12-17T12:40:20.411Z,40.20
2022-12-17T12:41:20.400Z,40.70
2022-12-17T12:42:20.378Z,40.30
2022-12-17T12:43:20.335Z,38.90
2022-12-17T12:44:20.362Z,41.90
2022-12-17T12:45:20.313Z,41.80
2022-12-17T12:46:20.468Z,47.00
2022-12-17T12:47:20.284Z,44.80
2022-12-17T12:48:20.338Z,45.40
2022-12-17T12:49:20.271Z,42.40
2022-12-17T12:50:20.287Z,42.20
2022-12-17T12:51:20.240Z,41.80
2022-12-17T12:52:20.264Z,44.50
2022-12-17T12:53:20.210Z,41.90